EGSSEGEO

Guest
Details From EGSS - London Stansted
To EGEO - Oban
Flight Number -
Tags Generated
Created
Modified
Stats Distance 339 nm / 627 km
Max Altitude 0 ft / 0 m
Waypoints 2
Social Downloads 1
Likes 0
Share VATSIM

Download

Looking for another format? Having issues loading an existing format? Contact us
Advertisement - Login to hide

Notes

Generated

Route

EGSS EGEO

ID Type Via Altitude Latitude Longitude Leg Dist Tot Dist Heading (true) Name
O EGSS APT - 0 ft / 0 m 51.87508˚ 0.21993˚ - 0 nm - -
O EGEO APT - 0 ft / 0 m 56.46016˚ -5.40382˚ 338 nm 338 nm 327° / 322° Oban

Altitude Profile

Advertisement - Login to hide

Weather


0- 5 10 15 20 25 30 35+ Temperature / ° C

Clouds and Precipitation
Forecast for 2018-05-23 12:00 UTC. Updated 36 minutes ago

Ground ~20,000 ft ~40,000 ft Winds

EGSS

Details ICAO EGSS (STN)
Name London Stansted
Region United Kingdom
Timezone Europe/London (UTC+1.0)
Stats Elevation 348 ft / 106 m (AMSL)
Location 51.885097° 0.234962°
Runways 1
Magnetic Variation 0.298° W

METAR

EGSS 231120Z AUTO 35011KT 9999 BKN011 13/10 Q1024

Decode

TAF

TAF AMD EGSS 230917Z 2309/2412 02012KT 8000 BKN006 BECMG 2309/2312 9999 FEW040 TEMPO 2309/2319 03015G25KT PROB30 TEMPO 2316/2408 6000 SHRA

Decode

Departure Runways

ID Width Length Bearing (true) Bearing (mag) Surface Threshold Offset Overrun Length
04 151 ft / 46 m 10,011 ft / 3,052 m 42.79° 43.09° Asphalt 994 ft / 303 m 0 ft / 0 m
22 151 ft / 46 m 10,011 ft / 3,052 m 222.81° 223.11° Asphalt 0 ft / 0 m 0 ft / 0 m

EGEO

Details ICAO EGEO (OBN)
Name Oban
Region United Kingdom
Timezone Europe/London (UTC+1.0)
Stats Elevation 20 ft / 6 m (AMSL)
Location 56.463716° -5.399864°
Runways 1
Magnetic Variation 3.177° W

METAR

EGEO 231050Z 32006KT 9999 FEW029 14/10 Q1027

Decode

TAF

Not found

Destination Runways

ID Width Length Bearing (true) Bearing (mag) Surface Threshold Offset Overrun Length
01 98 ft / 30 m 4,165 ft / 1,270 m 5.58° 8.76° Asphalt 413 ft / 126 m 0 ft / 0 m
19 98 ft / 30 m 4,165 ft / 1,270 m 185.58° 188.76° Asphalt 0 ft / 0 m 0 ft / 0 m